Latest Weather Observations for Redcliffe

IDQ60901

Issued at 5:41 pm EST Wednesday 23 September 2020 (issued every 10 minutes, with the page automatically refreshed every 10 minutes)

About weather observations | Map of Brisbane area stations | Latest observations for Brisbane area | Other Formats
Station Details ID: 040958 Name: REDCLIFFE Lat: -27.22 Lon: 153.09 Height: 12.6 m
Data from the previous 72 hours. | See also: Recent months at Redcliffe
Date/Time
EST
Temp
°C
App
Temp
°C
Dew
Point
°C
Rel
Hum
%
Delta-T
°C
Wind Press
QNH
hPa
Press
MSL
hPa
Rain since
9am
mm
Dir  Spd
km/h
Gust
km/h
Spd
kts
Gust
kts
23/05:30pm 23.6 21.9 19.9 80 2.4 NNE 28 32 15 17 1012.0 1011.9 0.0
23/05:00pm 24.1 21.7 19.0 73 3.2 NNE 30 35 16 19 1011.8 1011.7 0.0
23/04:30pm 24.8 22.1 18.5 68 4.0 NNE 30 33 16 18 1011.7 1011.6 0.0
23/04:00pm 25.3 21.9 15.9 56 5.7 NNE 28 32 15 17 1011.6 1011.5 0.0
23/03:30pm 26.0 22.5 15.4 52 6.4 NNE 28 32 15 17 1011.5 1011.4 0.0
23/03:00pm 26.3 23.5 15.4 51 6.6 NNE 24 28 13 15 1011.8 1011.7 0.0
23/02:30pm 26.6 25.1 16.8 55 6.1 NE 20 26 11 14 1012.0 1011.9 0.0
23/02:00pm 26.2 24.7 16.2 54 6.1 NE 19 22 10 12 1012.5 1012.4 0.0
23/01:30pm 26.0 25.4 15.7 53 6.3 NE 13 17 7 9 1012.8 1012.7 0.0
23/01:00pm 26.2 24.6 15.0 50 6.8 NNE 17 20 9 11 1013.2 1013.1 0.0
23/12:30pm 26.7 25.6 15.4 50 6.9 NNE 15 15 8 8 1013.6 1013.5 0.0
23/12:00pm 26.1 25.5 16.6 55 5.9 NNE 15 17 8 9 1013.9 1013.8 0.0
23/11:30am 26.6 26.1 17.7 58 5.6 NNE 17 19 9 10 1014.6 1014.5 0.0
23/11:00am 26.0 27.4 18.7 64 4.7 NE 9 15 5 8 1015.1 1015.0 0.0
23/10:30am 24.4 25.7 17.1 63 4.5 NW 6 9 3 5 1015.4 1015.3 0.0
23/10:00am 23.9 24.8 17.6 68 3.9 NNW 9 13 5 7 1015.8 1015.7 0.0
23/09:30am 24.1 25.1 18.7 72 3.4 NNW 11 13 6 7 1016.0 1015.9 0.0
23/09:00am 23.4 25.0 19.1 77 2.7 NNW 9 13 5 7 1015.8 1015.7 0.0
23/08:30am 22.8 23.5 18.8 78 2.5 NNW 13 17 7 9 1016.1 1016.0 0.0
23/08:00am 22.3 23.5 19.1 82 2.0 NNW 11 15 6 8 1015.8 1015.7 0.0
23/07:30am 22.1 22.9 19.1 83 1.9 NNW 13 15 7 8 1015.7 1015.6 0.0
23/07:00am 22.0 22.8 19.0 83 1.9 NW 13 17 7 9 1015.3 1015.2 0.0
23/06:30am 22.1 22.9 19.1 83 1.9 NNW 13 17 7 9 1015.3 1015.2 0.0
23/06:00am 22.5 23.5 18.7 79 2.4 NW 11 17 6 9 1014.7 1014.6 0.0
23/05:30am 22.6 23.0 18.2 76 2.8 WNW 13 17 7 9 1014.2 1014.1 0.0
23/05:00am 22.5 23.1 18.7 79 2.4 WNW 13 20 7 11 1013.9 1013.8 0.0
23/04:30am 22.1 23.5 19.6 86 1.6 NW 11 15 6 8 1013.7 1013.6 0.0
23/04:00am 22.2 23.6 20.3 89 1.2 NW 13 19 7 10 1013.8 1013.7 0.0
23/03:30am 21.9 23.3 20.4 91 1.0 NNW 13 19 7 10 1013.9 1013.8 0.0
23/03:00am 22.2 23.3 20.5 90 1.1 N 15 19 8 10 1013.9 1013.8 0.0
23/02:30am 22.3 22.9 20.2 88 1.4 N 17 24 9 13 1014.3 1014.2 0.0
23/02:00am 22.3 24.0 20.2 88 1.4 N 11 17 6 9 1014.3 1014.2 0.0
23/01:30am 22.2 24.4 20.3 89 1.2 N 9 13 5 7 1014.3 1014.2 0.0
23/01:00am 22.4 23.6 19.9 86 1.6 NNW 13 17 7 9 1014.6 1014.5 0.0
23/12:30am 22.6 23.4 19.9 85 1.7 N 15 19 8 10 1014.6 1014.5 0.0
23/12:00am 22.6 23.8 19.9 85 1.7 N 13 15 7 8 1014.5 1014.4 0.0
 
Date/Time
EST
Temp
°C
App
Temp
°C
Dew
Point
°C
Rel
Hum
%
Delta-T
°C
Wind Press
QNH
hPa
Press
MSL
hPa
Rain since
9am
mm
Dir  Spd
km/h
Gust
km/h
Spd
kts
Gust
kts
22/11:30pm 22.6 23.9 20.1 86 1.6 N 13 17 7 9 1014.5 1014.4 0.0
22/11:00pm 22.6 23.1 20.1 86 1.6 N 17 20 9 11 1014.5 1014.4 0.0
22/10:30pm 22.8 23.7 20.1 85 1.7 N 15 19 8 10 1014.5 1014.4 0.0
22/10:00pm 23.0 23.3 20.3 85 1.7 N 19 22 10 12 1014.6 1014.5 0.0
22/09:30pm 23.1 24.5 20.4 85 1.8 N 13 19 7 10 1014.8 1014.7 0.0
22/09:00pm 22.8 22.5 20.3 86 1.6 NNE 22 26 12 14 1014.6 1014.5 0.0
22/08:30pm 23.2 22.6 20.5 85 1.8 NNE 24 26 13 14 1014.7 1014.6 0.0
22/08:00pm 23.2 23.4 20.5 85 1.8 NNE 20 24 11 13 1014.6 1014.5 0.0
22/07:30pm 23.2 24.7 20.5 85 1.8 N 13 19 7 10 1014.8 1014.7 0.0
22/07:00pm 23.1 23.3 20.6 86 1.6 N 20 28 11 15 1014.2 1014.1 0.0
22/06:30pm 22.9 23.0 20.4 86 1.6 N 20 32 11 17 1013.6 1013.5 0.0
22/06:00pm 23.2 20.4 20.3 84 1.9 N 35 43 19 23 1013.1 1013.0 0.0
22/05:30pm 23.4 19.9 20.3 83 2.0 NNE 39 46 21 25 1012.9 1012.8 0.0
22/05:00pm 23.4 20.2 20.3 83 2.0 NNE 37 43 20 23 1012.7 1012.6 0.0
22/04:30pm 23.8 19.9 20.3 81 2.3 NNE 41 50 22 27 1012.4 1012.3 0.0
22/04:00pm 24.5 20.5 20.2 77 2.8 NNE 41 48 22 26 1012.2 1012.1 0.0
22/03:30pm 23.8 19.8 20.1 80 2.4 NNE 41 48 22 26 1012.5 1012.4 0.0
22/03:00pm 23.6 20.3 20.1 81 2.3 NNE 37 43 20 23 1012.5 1012.4 0.0
22/02:30pm 23.9 19.5 20.2 80 2.4 NNE 43 50 23 27 1012.6 1012.5 0.0
22/02:00pm 24.1 21.4 20.4 80 2.4 NNE 35 44 19 24 1012.8 1012.7 0.0
22/01:30pm 24.1 21.3 20.2 79 2.5 NNE 35 41 19 22 1013.2 1013.1 0.0
22/01:00pm 24.7 22.5 20.4 77 2.8 NNE 32 35 17 19 1013.6 1013.5 0.0
22/12:30pm 25.0 21.6 19.8 73 3.4 NNE 37 41 20 22 1014.0 1013.9 0.0
22/12:00pm 26.8 24.1 19.7 65 4.6 NE 33 39 18 21 1014.3 1014.2 0.0
22/11:30am 27.7 24.9 19.0 59 5.6 N 32 37 17 20 1014.9 1014.8 0.0
22/11:00am 27.8 25.2 19.6 61 5.3 N 32 37 17 20 1015.4 1015.3 0.0
22/10:30am 27.2 24.6 19.5 62 5.0 N 32 35 17 19 1015.7 1015.6 0.0
22/10:00am 26.4 24.5 19.3 65 4.6 N 28 39 15 21 1016.1 1016.0 0.0
22/09:30am 26.6 24.6 20.0 67 4.3 N 30 41 16 22 1016.1 1016.0 0.0
22/09:00am 24.5 22.3 19.6 74 3.1 N 30 37 16 20 1016.5 1016.4 0.0
22/08:30am 24.1 22.7 19.6 76 2.9 N 26 33 14 18 1016.6 1016.5 0.0
22/08:00am 23.6 21.3 20.1 81 2.3 N 32 39 17 21 1016.7 1016.6 0.0
22/07:30am 22.7 21.0 19.7 83 1.9 N 28 37 15 20 1016.6 1016.5 0.0
22/07:00am 22.3 20.6 19.7 85 1.7 N 28 35 15 19 1016.5 1016.4 0.0
22/06:30am 21.9 20.4 20.2 90 1.1 N 28 35 15 19 1015.8 1015.7 0.0
22/06:00am 21.8 17.7 19.9 89 1.2 N 41 48 22 26 1014.8 1014.7 0.0
22/05:30am 21.7 18.3 19.8 89 1.2 NNE 37 41 20 22 1014.7 1014.6 0.0
22/05:00am 21.7 19.1 19.6 88 1.3 NNE 32 37 17 20 1015.0 1014.9 0.0
22/04:30am 21.3 20.7 19.8 91 1.0 N 22 26 12 14 1015.2 1015.1 0.0
22/04:00am 21.4 22.1 19.7 90 1.1 N 15 20 8 11 1015.6 1015.5 0.0
22/03:30am 21.7 21.7 19.8 89 1.2 NNW 19 30 10 16 1015.9 1015.8 0.0
22/03:00am 21.5 21.2 19.6 89 1.2 N 20 26 11 14 1015.4 1015.3 0.0
22/02:30am 21.5 21.1 19.4 88 1.3 N 20 26 11 14 1015.9 1015.8 0.0
22/02:00am 21.9 22.5 19.5 86 1.5 N 15 22 8 12 1016.4 1016.3 0.0
22/01:30am 22.0 21.6 19.4 85 1.7 N 20 28 11 15 1016.3 1016.2 0.0
22/01:00am 22.1 21.8 19.5 85 1.7 N 20 28 11 15 1016.4 1016.3 0.0
22/12:30am 22.2 20.7 19.4 84 1.8 N 26 32 14 17 1016.2 1016.1 0.0
22/12:00am 22.3 20.4 19.3 83 1.9 N 28 33 15 18 1016.4 1016.3 0.0
 
Date/Time
EST
Temp
°C
App
Temp
°C
Dew
Point
°C
Rel
Hum
%
Delta-T
°C
Wind Press
QNH
hPa
Press
MSL
hPa
Rain since
9am
mm
Dir  Spd
km/h
Gust
km/h
Spd
kts
Gust
kts
21/11:30pm 22.6 21.5 19.4 82 2.0 N 24 32 13 17 1016.5 1016.4 0.0
21/11:00pm 22.3 20.6 19.8 86 1.6 N 28 35 15 19 1016.2 1016.1 0.0
21/10:30pm 22.3 19.4 20.0 87 1.5 N 35 41 19 22 1016.2 1016.1 0.0
21/10:00pm 22.2 18.6 20.1 88 1.3 N 39 46 21 25 1015.9 1015.8 0.0
21/09:30pm 22.3 18.8 20.4 89 1.2 N 39 48 21 26 1016.1 1016.0 0.0
21/09:00pm 22.4 18.5 20.3 88 1.4 N 41 50 22 27 1016.0 1015.9 0.0
21/08:30pm 22.5 18.1 20.2 87 1.5 N 43 50 23 27 1015.8 1015.7 0.0
21/08:00pm 22.5 18.1 20.4 88 1.4 N 44 56 24 30 1015.4 1015.3 0.0
21/07:30pm 22.5 18.1 20.4 88 1.4 N 44 56 24 30 1015.2 1015.1 0.0
21/07:00pm 22.3 17.8 20.2 88 1.4 NNE 44 56 24 30 1014.7 1014.6 0.0
21/06:30pm 22.3 17.4 20.2 88 1.4 NNE 46 56 25 30 1014.4 1014.3 0.0
21/06:00pm 22.4 17.9 20.3 88 1.4 NNE 44 52 24 28 1014.1 1014.0 0.0
21/05:30pm 22.7 17.9 20.4 87 1.5 NNE 46 57 25 31 1014.1 1014.0 0.0
21/05:00pm 23.1 18.1 20.1 83 1.9 NNE 46 54 25 29 1014.2 1014.1 0.0
21/04:30pm 23.6 19.1 20.3 82 2.1 NNE 44 52 24 28 1014.3 1014.2 0.0
21/04:00pm 23.8 19.4 20.1 80 2.4 NNE 43 50 23 27 1014.4 1014.3 0.0
21/03:30pm 24.3 19.9 20.2 78 2.7 NNE 43 50 23 27 1014.5 1014.4 0.0
21/03:00pm 24.5 20.8 20.0 76 2.9 NNE 39 48 21 26 1014.8 1014.7 0.0
21/02:30pm 24.4 20.8 20.1 77 2.8 NNE 39 46 21 25 1015.0 1014.9 0.0
21/02:00pm 25.3 21.6 19.9 72 3.5 NE 39 44 21 24 1015.2 1015.1 0.0
21/01:30pm 25.8 22.3 19.7 69 3.9 NE 37 44 20 24 1015.4 1015.3 0.0
21/01:00pm 25.5 22.3 19.4 69 3.9 NE 35 41 19 22 1015.8 1015.7 0.0
21/12:30pm 25.9 23.1 19.5 68 4.1 NE 33 37 18 20 1016.2 1016.1 0.0
21/12:00pm 26.5 24.7 19.6 66 4.5 NE 28 33 15 18 1016.5 1016.4 0.0
21/11:30am 26.7 25.2 20.3 68 4.2 NE 28 32 15 17 1017.0 1016.9 0.0
21/11:00am 26.0 25.3 18.7 64 4.6 ENE 20 26 11 14 1017.5 1017.4 0.0
21/10:30am 26.0 26.2 17.6 60 5.3 NNE 13 17 7 9 1018.0 1017.9 0.0
21/10:00am 25.3 25.5 17.7 62 4.8 NNW 13 19 7 10 1018.3 1018.2 0.0
21/09:30am 25.0 25.0 18.0 65 4.4 N 15 24 8 13 1018.3 1018.2 0.0
21/09:00am 23.4 23.2 17.6 70 3.6 NNW 15 20 8 11 1018.4 1018.3 0.0
21/08:30am 22.9 22.7 18.4 76 2.8 NNW 17 20 9 11 1018.6 1018.5 0.0
21/08:00am 21.8 22.1 18.8 83 1.9 NNW 15 22 8 12 1018.7 1018.6 0.0
21/07:30am 20.5 21.3 18.1 86 1.5 NNW 11 15 6 8 1018.3 1018.2 0.0
21/07:00am 19.4 20.5 18.1 92 0.8 WNW 9 15 5 8 1017.9 1017.8 0.0
21/06:30am 18.4 19.9 18.1 98 0.2 WNW 7 9 4 5 1017.5 1017.4 0.0
21/06:00am 17.4 18.5 17.1 98 0.2 NW 7 9 4 5 1017.2 1017.1 0.0
21/05:30am 17.5 18.8 17.0 97 0.3 W 6 7 3 4 1017.0 1016.9 0.0
21/05:00am 17.8 18.6 17.3 97 0.3 W 9 9 5 5 1016.7 1016.6 0.0
21/04:30am 18.3 19.8 18.0 98 0.2 W 7 9 4 5 1016.5 1016.4 0.0
21/04:00am 18.4 19.8 17.9 97 0.3 WNW 7 11 4 6 1016.5 1016.4 0.0
21/03:30am 18.4 19.4 17.8 96 0.4 NNW 9 11 5 6 1016.3 1016.2 0.0
21/03:00am 20.2 20.8 18.7 91 0.9 N 13 17 7 9 1016.4 1016.3 0.0
21/02:30am 20.1 19.9 18.6 91 0.9 N 17 19 9 10 1016.4 1016.3 0.0
21/02:00am 20.1 21.8 18.6 91 0.9 NNW 7 11 4 6 1016.6 1016.5 0.0
21/01:30am 20.2 20.8 18.7 91 0.9 N 13 17 7 9 1016.7 1016.6 0.0
21/01:00am 20.7 20.8 19.2 91 0.9 N 17 20 9 11 1017.0 1016.9 0.0
21/12:30am 20.6 21.6 19.4 93 0.8 N 13 17 7 9 1017.2 1017.1 0.0
21/12:00am 20.5 22.0 19.7 95 0.5 N 11 13 6 7 1017.3 1017.2 0.0
 
Date/Time
EST
Temp
°C
App
Temp
°C
Dew
Point
°C
Rel
Hum
%
Delta-T
°C
Wind Press
QNH
hPa
Press
MSL
hPa
Rain since
9am
mm
Dir  Spd
km/h
Gust
km/h
Spd
kts
Gust
kts
20/11:30pm 20.3 21.7 19.5 95 0.5 N 11 13 6 7 1017.4 1017.3 0.0
20/11:00pm 20.3 22.1 19.5 95 0.5 NNW 9 13 5 7 1017.5 1017.4 0.0
20/10:30pm 20.3 21.7 19.5 95 0.5 NNW 11 13 6 7 1017.6 1017.5 0.0
20/10:00pm 20.6 21.7 19.6 94 0.6 N 13 17 7 9 1017.6 1017.5 0.0
20/09:30pm 20.9 21.6 19.7 93 0.8 N 15 19 8 10 1017.6 1017.5 0.0
20/09:00pm 21.1 22.2 19.6 91 1.0 N 13 15 7 8 1017.8 1017.7 0.0
20/08:30pm 21.4 22.6 19.9 91 1.0 N 13 17 7 9 1017.6 1017.5 0.0
20/08:00pm 21.5 22.7 19.8 90 1.1 N 13 19 7 10 1017.4 1017.3 0.0
20/07:30pm 21.5 21.4 19.6 89 1.2 NNE 19 22 10 12 1016.9 1016.8 0.0
20/07:00pm 21.5 21.3 19.4 88 1.3 NNE 19 22 10 12 1016.8 1016.7 0.0
20/06:30pm 21.6 21.2 19.3 87 1.5 NNE 20 24 11 13 1016.6 1016.5 0.0
20/06:00pm 21.7 21.5 19.4 87 1.5 NNE 19 22 10 12 1016.3 1016.2 0.0

Latest Capital City Observations: Canberra | Sydney | Melbourne | Brisbane | Adelaide | Perth | Hobart | Darwin

Other formats

Comma delimited format used in spreadsheet applications
http://www.bom.gov.au/fwo/IDQ60901/IDQ60901.95591.axf

JavaScript Object Notation format (JSON) in row-major order
http://www.bom.gov.au/fwo/IDQ60901/IDQ60901.95591.json

Data quality

Most of these data are generated automatically and are frequently updated. Quality checks on data are not normally performed. It is possible for incorrect values to appear. Refer to information at About Latest Weather Observations and please check the disclaimer before using these data.